Time;durP1;ratioP1;P1;durP2;ratioP2;P2;SDS_P1;SDS_P2;PMS_P1;PMS_P2;Temp;Humidity;BMP_temperature;BMP_pressure;BME280_temperature;BME280_humidity;BME280_pressure;Samples;Min_cycle;Max_cycle;Signal;HPM_P1;HPM_P2
2023/07/13 00:00:26;;;;;;;8.25;3.05;;;20.80;79.80;;;;;;4848491;29;20130;-86
2023/07/13 00:02:53;;;;;;;8.43;3.08;;;20.80;79.70;;;;;;4863822;29;20049;-86
2023/07/13 00:05:24;;;;;;;7.15;3.60;;;20.80;79.70;;;;;;4840716;29;20148;-86
2023/07/13 00:07:51;;;;;;;7.30;3.00;;;20.80;79.90;;;;;;4842929;29;20403;-86
2023/07/13 00:10:18;;;;;;;7.95;3.05;;;20.80;79.90;;;;;;4841847;29;20037;-86
2023/07/13 00:12:46;;;;;;;7.32;3.15;;;20.90;79.80;;;;;;4855729;29;20037;-85
2023/07/13 00:15:23;;;;;;;7.65;2.80;;;20.80;79.90;;;;;;4854492;29;20093;-86
2023/07/13 00:17:54;;;;;;;6.68;2.72;;;20.80;79.90;;;;;;4841587;29;20477;-86
2023/07/13 00:20:25;;;;;;;8.27;3.00;;;20.70;79.70;;;;;;4838893;29;20141;-86
2023/07/13 00:22:53;;;;;;;8.80;2.78;;;20.80;79.60;;;;;;4852936;29;20045;-85
2023/07/13 00:25:24;;;;;;;7.25;2.97;;;20.80;79.60;;;;;;4835064;29;20437;-86
2023/07/13 00:27:51;;;;;;;8.52;3.40;;;20.80;79.40;;;;;;4852684;29;20049;-85
2023/07/13 00:30:18;;;;;;;7.68;3.13;;;20.90;79.50;;;;;;4833607;29;20127;-86
2023/07/13 00:32:45;;;;;;;6.10;2.80;;;20.90;79.20;;;;;;4842290;29;20053;-85
2023/07/13 00:35:14;;;;;;;7.90;3.10;;;20.90;79.40;;;;;;4842438;29;20052;-86
2023/07/13 00:37:42;;;;;;;10.90;3.65;;;20.90;79.50;;;;;;4839622;29;20499;-86
2023/07/13 00:40:12;;;;;;;10.88;3.42;;;20.80;79.50;;;;;;4841204;29;20049;-86
2023/07/13 00:42:43;;;;;;;8.82;3.75;;;20.60;79.80;;;;;;4831819;29;20399;-85
2023/07/13 00:45:13;;;;;;;8.47;3.07;;;20.50;80.20;;;;;;4837252;29;20107;-86
2023/07/13 00:47:40;;;;;;;9.40;3.17;;;20.50;80.20;;;;;;4853642;29;20045;-86
2023/07/13 00:50:12;;;;;;;7.75;3.08;;;20.50;80.40;;;;;;4844312;29;20047;-86
2023/07/13 00:52:44;;;;;;;8.25;3.03;;;20.50;80.20;;;;;;4848896;29;20052;-86
2023/07/13 00:55:13;;;;;;;7.88;3.25;;;20.50;80.50;;;;;;4842408;29;20556;-86
2023/07/13 00:57:42;;;;;;;7.10;2.80;;;20.30;81.00;;;;;;4849438;29;20063;-86
2023/07/13 01:00:11;;;;;;;9.70;3.30;;;20.20;81.00;;;;;;4845335;29;20411;-86
2023/07/13 01:02:42;;;;;;;8.07;3.42;;;20.30;81.00;;;;;;4843927;29;20121;-86
2023/07/13 01:05:15;;;;;;;7.85;2.92;;;20.40;80.80;;;;;;4843333;29;20046;-86
2023/07/13 01:07:44;;;;;;;6.88;2.88;;;20.50;80.50;;;;;;4839055;29;20400;-86
2023/07/13 01:10:39;;;;;;;8.10;3.80;;;20.50;80.40;;;;;;4841013;29;20041;-86
2023/07/13 01:13:10;;;;;;;7.43;3.60;;;20.50;80.60;;;;;;4846664;29;20073;-86
2023/07/13 01:15:46;;;;;;;8.88;3.80;;;20.50;80.30;;;;;;4831118;29;20470;-86
2023/07/13 01:18:18;;;;;;;11.32;3.90;;;20.50;80.40;;;;;;4846562;29;20053;-85
2023/07/13 01:21:00;;;;;;;9.45;4.00;;;20.50;80.50;;;;;;4833045;29;20057;-86
2023/07/13 01:23:29;;;;;;;8.63;3.47;;;20.50;80.80;;;;;;4856602;29;20049;-86
2023/07/13 01:25:56;;;;;;;10.20;3.97;;;20.50;80.90;;;;;;4861038;29;20407;-86
2023/07/13 01:28:26;;;;;;;10.15;4.30;;;20.50;81.00;;;;;;4834201;29;20406;-86
2023/07/13 01:30:56;;;;;;;11.35;4.32;;;20.60;80.90;;;;;;4854415;29;20458;-86
2023/07/13 01:33:24;;;;;;;8.57;3.97;;;20.60;81.00;;;;;;4836954;29;20052;-85
2023/07/13 01:35:51;;;;;;;9.20;3.40;;;20.50;81.30;;;;;;4837624;29;20049;-86
2023/07/13 01:38:21;;;;;;;8.60;4.10;;;20.50;81.60;;;;;;4837119;29;20057;-86
2023/07/13 01:40:48;;;;;;;9.20;3.97;;;20.40;81.60;;;;;;4837436;29;20576;-86
2023/07/13 01:43:15;;;;;;;9.18;3.60;;;20.30;81.80;;;;;;4838115;29;20064;-86
2023/07/13 01:45:44;;;;;;;8.52;3.25;;;20.30;82.00;;;;;;4838420;29;20081;-86
2023/07/13 01:48:13;;;;;;;7.60;3.67;;;20.30;82.20;;;;;;4850070;29;20049;-87
2023/07/13 01:50:41;;;;;;;9.85;3.60;;;20.30;82.10;;;;;;4859415;29;20055;-87
2023/07/13 01:53:08;;;;;;;9.40;3.33;;;20.20;82.10;;;;;;4847871;29;20045;-87
2023/07/13 01:55:37;;;;;;;8.25;3.72;;;20.30;81.90;;;;;;4838925;29;20504;-87
2023/07/13 01:58:04;;;;;;;7.22;3.40;;;20.30;81.90;;;;;;4835203;29;20049;-87
2023/07/13 02:00:32;;;;;;;8.47;3.50;;;20.30;81.90;;;;;;4854633;29;20128;-86
2023/07/13 02:03:01;;;;;;;7.78;3.08;;;20.30;81.70;;;;;;4866294;29;20554;-86
2023/07/13 02:05:31;;;;;;;7.00;3.40;;;20.30;81.40;;;;;;4837968;29;20053;-86
2023/07/13 02:07:58;;;;;;;12.25;4.53;;;20.30;81.40;;;;;;4857741;29;20049;-86
2023/07/13 02:10:26;;;;;;;15.65;5.80;;;20.40;81.70;;;;;;4844050;29;20076;-86
2023/07/13 02:12:53;;;;;;;11.83;5.57;;;20.30;82.00;;;;;;4847362;29;20130;-87
2023/07/13 02:15:20;;;;;;;13.02;6.28;;;20.20;82.10;;;;;;4855261;29;20579;-86
2023/07/13 02:17:47;;;;;;;14.07;6.20;;;20.20;82.20;;;;;;4842497;29;20568;-86
2023/07/13 02:20:14;;;;;;;14.30;7.25;;;20.20;82.10;;;;;;4841326;29;20512;-86
2023/07/13 02:22:42;;;;;;;11.55;5.78;;;20.30;82.00;;;;;;4840027;29;20051;-86
2023/07/13 02:25:09;;;;;;;14.43;5.90;;;20.30;81.80;;;;;;4840061;29;20572;-85
2023/07/13 02:27:36;;;;;;;12.50;5.30;;;20.30;81.70;;;;;;4837987;29;20060;-86
2023/07/13 02:30:03;;;;;;;12.65;5.55;;;20.30;81.60;;;;;;4840589;29;20045;-86
2023/07/13 02:32:30;;;;;;;12.07;6.20;;;20.40;81.30;;;;;;4840696;29;20057;-86
2023/07/13 02:34:57;;;;;;;14.23;5.50;;;20.40;81.10;;;;;;4854579;29;20527;-86
2023/07/13 02:37:24;;;;;;;11.33;6.03;;;20.50;80.90;;;;;;4839487;29;20056;-86
2023/07/13 02:39:52;;;;;;;14.10;5.38;;;20.40;80.80;;;;;;4859550;29;20575;-86
2023/07/13 02:42:19;;;;;;;11.63;5.13;;;20.40;80.80;;;;;;4841720;29;20045;-87
2023/07/13 02:44:46;;;;;;;12.98;6.05;;;20.30;80.90;;;;;;4840042;29;20052;-87
2023/07/13 02:47:13;;;;;;;11.43;5.60;;;20.30;81.00;;;;;;4841520;29;20400;-86
2023/07/13 02:49:40;;;;;;;18.87;7.17;;;20.30;80.80;;;;;;4834803;29;20124;-87
2023/07/13 02:52:07;;;;;;;12.38;5.10;;;20.30;80.30;;;;;;4831362;29;20061;-87
2023/07/13 02:54:34;;;;;;;11.23;5.72;;;20.30;80.20;;;;;;4843273;29;20073;-86
2023/07/13 02:57:01;;;;;;;15.35;6.03;;;20.30;80.30;;;;;;4840400;29;20055;-87
2023/07/13 02:59:29;;;;;;;13.88;6.82;;;20.20;80.50;;;;;;4837979;29;20060;-86
2023/07/13 03:01:56;;;;;;;13.87;7.73;;;20.30;80.70;;;;;;4850363;29;20045;-86
2023/07/13 03:04:23;;;;;;;18.98;7.43;;;20.20;80.60;;;;;;4843767;29;20062;-87
2023/07/13 03:06:50;;;;;;;16.45;7.38;;;20.30;80.80;;;;;;4839791;29;20072;-86
2023/07/13 03:09:18;;;;;;;13.13;5.95;;;20.20;81.40;;;;;;4833626;29;20084;-86
2023/07/13 03:11:54;;;;;;;11.57;6.65;;;20.10;81.30;;;;;;4844503;29;20487;-87
2023/07/13 03:14:32;;;;;;;12.93;6.07;;;20.20;81.30;;;;;;4855434;29;20037;-86
2023/07/13 03:17:00;;;;;;;11.63;5.80;;;20.20;81.20;;;;;;4836554;29;20105;-87
2023/07/13 03:19:31;;;;;;;12.20;4.95;;;20.20;81.20;;;;;;4837218;29;20105;-87
2023/07/13 03:21:58;;;;;;;10.98;4.90;;;20.20;81.50;;;;;;4854987;29;20052;-87
2023/07/13 03:24:25;;;;;;;9.82;5.20;;;20.20;81.80;;;;;;4834854;29;20049;-86
2023/07/13 03:26:53;;;;;;;8.63;5.10;;;20.10;82.30;;;;;;4835551;29;20052;-86
2023/07/13 03:29:21;;;;;;;12.43;5.57;;;20.00;83.00;;;;;;4842341;29;20056;-86
2023/07/13 03:31:48;;;;;;;10.48;5.13;;;20.00;83.40;;;;;;4834540;29;20512;-87
2023/07/13 03:34:15;;;;;;;9.93;4.88;;;20.00;83.40;;;;;;4855947;29;20045;-86
2023/07/13 03:36:42;;;;;;;10.95;5.53;;;20.00;83.40;;;;;;4835899;29;20453;-87
2023/07/13 03:39:12;;;;;;;11.03;5.17;;;20.00;83.40;;;;;;4831622;29;20050;-88
2023/07/13 03:41:48;;;;;;;9.35;5.18;;;20.10;83.40;;;;;;4832460;29;20740;-88
2023/07/13 03:44:17;;;;;;;9.88;5.03;;;20.00;83.40;;;;;;4837621;29;20045;-88
2023/07/13 03:46:47;;;;;;;9.50;4.60;;;20.00;83.50;;;;;;4849648;29;20539;-88
2023/07/13 03:49:15;;;;;;;10.52;5.00;;;20.00;83.50;;;;;;4846010;29;20041;-88
2023/07/13 03:51:42;;;;;;;9.50;4.50;;;20.00;83.60;;;;;;4833846;29;20066;-89
2023/07/13 03:54:09;;;;;;;8.32;4.47;;;20.00;83.60;;;;;;4833219;29;20053;-90
2023/07/13 03:56:37;;;;;;;8.82;4.35;;;20.00;83.70;;;;;;4832787;29;20052;-90
2023/07/13 03:59:06;;;;;;;8.77;4.75;;;20.00;83.90;;;;;;4841234;29;20505;-90
2023/07/13 04:01:34;;;;;;;8.35;4.55;;;20.00;83.60;;;;;;4832392;29;20050;-89
2023/07/13 04:04:04;;;;;;;9.27;5.13;;;20.10;83.80;;;;;;4833413;29;20060;-89
2023/07/13 04:06:32;;;;;;;10.50;4.68;;;20.10;83.90;;;;;;4832450;29;20511;-89
2023/07/13 04:09:08;;;;;;;10.50;5.13;;;20.10;83.90;;;;;;4832305;29;20053;-90
2023/07/13 04:11:36;;;;;;;11.38;4.90;;;20.10;83.90;;;;;;4833362;29;20049;-90
2023/07/13 04:14:03;;;;;;;8.65;4.63;;;20.10;83.90;;;;;;4832683;29;20072;-89
2023/07/13 04:16:30;;;;;;;9.87;4.83;;;20.10;83.80;;;;;;4831610;29;20088;-89
2023/07/13 04:19:01;;;;;;;9.93;4.43;;;20.10;83.60;;;;;;4831249;29;20076;-90
2023/07/13 04:21:31;;;;;;;9.32;5.07;;;20.20;83.40;;;;;;4832459;29;20518;-89
2023/07/13 04:23:58;;;;;;;9.23;4.88;;;20.20;83.30;;;;;;4845696;29;20064;-89
2023/07/13 04:26:25;;;;;;;7.65;4.43;;;20.20;83.50;;;;;;4850106;29;20140;-89
2023/07/13 04:28:53;;;;;;;11.83;4.57;;;20.30;83.40;;;;;;4850564;29;20101;-89
2023/07/13 04:31:20;;;;;;;9.48;5.10;;;20.30;83.30;;;;;;4865898;29;20056;-89
2023/07/13 04:33:48;;;;;;;11.25;4.93;;;20.40;83.10;;;;;;4847364;29;20145;-89
2023/07/13 04:36:17;;;;;;;10.40;4.82;;;20.40;83.30;;;;;;4849351;29;20132;-89
2023/07/13 04:38:44;;;;;;;10.32;5.45;;;20.40;83.00;;;;;;4850225;29;20084;-90
2023/07/13 04:41:13;;;;;;;10.40;4.80;;;20.50;83.30;;;;;;4843720;29;20042;-89
2023/07/13 04:43:40;;;;;;;9.23;4.72;;;20.50;83.10;;;;;;4833169;29;20508;-89
2023/07/13 04:46:10;;;;;;;8.00;4.55;;;20.50;82.70;;;;;;4831999;29;20082;-89
2023/07/13 04:48:39;;;;;;;10.35;4.53;;;20.60;82.70;;;;;;4832126;29;20149;-89
2023/07/13 04:51:06;;;;;;;9.18;4.82;;;20.60;82.50;;;;;;4832735;29;20520;-89
2023/07/13 04:53:34;;;;;;;11.93;5.07;;;20.70;82.60;;;;;;4831978;29;20531;-90
2023/07/13 04:56:03;;;;;;;10.82;4.50;;;20.80;82.40;;;;;;4832486;29;20069;-89
2023/07/13 04:58:30;;;;;;;11.02;4.60;;;20.80;82.20;;;;;;4831919;29;20046;-90
2023/07/13 05:01:05;;;;;;;10.00;5.20;;;20.80;81.90;;;;;;4832870;29;20505;-89
2023/07/13 05:03:33;;;;;;;8.30;4.63;;;21.00;82.10;;;;;;4832064;29;20075;-89
2023/07/13 05:06:04;;;;;;;11.13;4.57;;;21.00;81.70;;;;;;4832659;29;20049;-90
2023/07/13 05:08:33;;;;;;;10.63;4.97;;;21.00;81.60;;;;;;4835284;29;20057;-89
2023/07/13 05:11:02;;;;;;;10.82;4.75;;;21.10;81.30;;;;;;4831001;29;20049;-89
2023/07/13 05:13:29;;;;;;;9.90;4.47;;;21.10;81.70;;;;;;4841725;29;20496;-89
2023/07/13 05:16:15;;;;;;;10.80;4.80;;;21.20;81.50;;;;;;4849565;29;20413;-89
2023/07/13 05:18:42;;;;;;;9.10;4.30;;;21.30;81.70;;;;;;4835752;29;20497;-89
2023/07/13 05:21:11;;;;;;;11.57;4.18;;;21.50;81.30;;;;;;4842835;29;20045;-89
2023/07/13 05:23:43;;;;;;;13.02;4.85;;;21.60;81.20;;;;;;4838847;29;20136;-89
2023/07/13 05:26:11;;;;;;;12.10;4.50;;;21.60;80.30;;;;;;4831700;29;20508;-90
2023/07/13 05:28:39;;;;;;;9.00;4.60;;;21.70;80.20;;;;;;4833254;29;20050;-90
2023/07/13 05:31:08;;;;;;;9.63;4.30;;;21.80;79.80;;;;;;4852377;29;20060;-90
2023/07/13 05:33:36;;;;;;;10.27;4.78;;;22.00;79.80;;;;;;4852756;29;20045;-90
2023/07/13 05:36:03;;;;;;;8.07;4.53;;;22.00;79.30;;;;;;4844874;29;20492;-91
2023/07/13 05:38:31;;;;;;;9.13;4.50;;;22.10;79.20;;;;;;4845011;29;20053;-90
2023/07/13 05:40:58;;;;;;;8.70;4.40;;;22.20;78.50;;;;;;4847276;29;20052;-90
2023/07/13 05:43:25;;;;;;;9.93;4.80;;;22.30;79.60;;;;;;4839351;29;20049;-90
2023/07/13 05:45:56;;;;;;;12.52;4.82;;;22.30;79.20;;;;;;4836372;29;20072;-90
2023/07/13 05:48:24;;;;;;;9.65;4.80;;;22.50;78.70;;;;;;4850662;29;20109;-90
2023/07/13 05:50:54;;;;;;;8.55;4.35;;;22.60;78.90;;;;;;4841187;29;20454;-90
2023/07/13 05:53:21;;;;;;;9.30;4.22;;;22.60;78.50;;;;;;4849485;29;20041;-90
2023/07/13 05:55:49;;;;;;;8.93;4.47;;;22.60;77.80;;;;;;4842740;29;20441;-90
2023/07/13 05:58:17;;;;;;;9.35;4.50;;;22.80;78.30;;;;;;4850914;29;20092;-91
2023/07/13 06:00:45;;;;;;;9.30;4.35;;;22.90;77.80;;;;;;4851958;29;20060;-91
2023/07/13 06:03:13;;;;;;;9.88;4.40;;;23.00;77.50;;;;;;4836034;29;20061;-91
2023/07/13 06:05:41;;;;;;;9.07;4.22;;;23.10;76.90;;;;;;4831625;29;20061;-91
2023/07/13 06:08:09;;;;;;;10.10;4.53;;;23.10;75.80;;;;;;4831057;29;20140;-90
2023/07/13 06:10:36;;;;;;;11.90;5.00;;;23.20;76.10;;;;;;4837299;29;20072;-90
2023/07/13 06:13:03;;;;;;;15.65;6.13;;;23.30;75.80;;;;;;4830924;29;20509;-90
2023/07/13 06:15:31;;;;;;;15.20;6.38;;;23.40;75.70;;;;;;4832093;29;20504;-91
2023/07/13 06:17:58;;;;;;;14.35;7.18;;;23.60;75.40;;;;;;4841658;29;20076;-91
2023/07/13 06:20:25;;;;;;;14.33;7.27;;;23.70;75.30;;;;;;4815827;29;20054;-92
2023/07/13 06:22:52;;;;;;;17.70;7.30;;;23.80;75.60;;;;;;4833942;29;20089;-92
2023/07/13 06:25:19;;;;;;;15.00;6.50;;;23.80;76.10;;;;;;4838635;29;20045;-91
2023/07/13 06:27:46;;;;;;;9.75;5.13;;;23.80;75.50;;;;;;4840585;29;20530;-91
2023/07/13 06:30:13;;;;;;;9.73;4.53;;;23.80;75.40;;;;;;4837468;29;20047;-91
2023/07/13 06:32:40;;;;;;;9.07;4.40;;;23.80;75.50;;;;;;4849203;29;20050;-91
2023/07/13 06:35:08;;;;;;;12.23;4.65;;;23.80;75.80;;;;;;4835285;29;20492;-91
2023/07/13 06:37:37;;;;;;;10.98;4.95;;;23.80;76.10;;;;;;4835677;29;20042;-91
2023/07/13 06:40:05;;;;;;;9.57;4.47;;;23.90;75.60;;;;;;4854257;29;20105;-92
2023/07/13 06:42:33;;;;;;;10.68;5.20;;;23.90;76.20;;;;;;4840350;29;20046;-91
2023/07/13 06:45:00;;;;;;;11.87;5.50;;;23.90;75.90;;;;;;4842204;29;20057;-89
2023/07/13 06:47:27;;;;;;;12.18;5.85;;;24.00;76.10;;;;;;4850624;29;20457;-89
2023/07/13 06:49:54;;;;;;;14.57;6.28;;;24.00;75.50;;;;;;4840578;29;20066;-89
2023/07/13 06:52:21;;;;;;;14.35;6.88;;;24.00;75.50;;;;;;4834431;29;20086;-89
2023/07/13 06:54:48;;;;;;;12.88;6.75;;;24.00;75.40;;;;;;4836570;29;20046;-88
2023/07/13 06:57:15;;;;;;;13.73;7.47;;;23.90;75.30;;;;;;4855456;29;20038;-90
2023/07/13 06:59:42;;;;;;;14.20;7.63;;;23.90;75.70;;;;;;4837561;29;20401;-89
2023/07/13 07:02:10;;;;;;;16.48;7.90;;;23.90;75.90;;;;;;4828382;29;20045;-89
2023/07/13 07:04:37;;;;;;;17.85;7.50;;;24.00;75.90;;;;;;4846823;29;20066;-89
2023/07/13 07:07:04;;;;;;;15.25;6.57;;;24.10;76.30;;;;;;4831811;29;20050;-89
2023/07/13 07:09:35;;;;;;;17.37;7.40;;;24.10;76.00;;;;;;4852244;29;20042;-88
2023/07/13 07:12:03;;;;;;;15.82;6.15;;;24.10;76.20;;;;;;4831108;29;20042;-89
2023/07/13 07:14:31;;;;;;;14.32;5.65;;;24.00;76.10;;;;;;4846597;29;20098;-89
2023/07/13 07:16:58;;;;;;;10.93;5.53;;;24.00;75.50;;;;;;4828853;29;20046;-89
2023/07/13 07:19:27;;;;;;;10.82;5.22;;;24.10;74.90;;;;;;4841404;29;20065;-89
2023/07/13 07:21:55;;;;;;;10.90;4.90;;;24.10;74.40;;;;;;4854213;29;20070;-89
2023/07/13 07:24:22;;;;;;;9.60;4.55;;;24.10;74.70;;;;;;4836348;29;20052;-88
2023/07/13 07:26:49;;;;;;;10.48;5.07;;;24.20;74.20;;;;;;4831722;29;20057;-89
2023/07/13 07:29:19;;;;;;;10.93;4.55;;;24.20;74.80;;;;;;4831524;29;20353;-89
2023/07/13 07:31:49;;;;;;;11.68;5.05;;;24.20;75.10;;;;;;4840595;29;20053;-89
2023/07/13 07:34:31;;;;;;;10.93;4.50;;;24.30;75.20;;;;;;4849942;29;20488;-88
2023/07/13 07:37:02;;;;;;;9.80;4.95;;;24.40;74.60;;;;;;4839001;29;20053;-89
2023/07/13 07:39:32;;;;;;;10.57;4.47;;;24.50;75.60;;;;;;4835662;29;20080;-90
2023/07/13 07:41:59;;;;;;;10.35;5.05;;;24.60;74.60;;;;;;4836562;29;20492;-90
2023/07/13 07:44:28;;;;;;;11.57;4.78;;;24.60;74.70;;;;;;4830626;29;20043;-90
2023/07/13 07:46:55;;;;;;;13.10;5.03;;;24.60;73.50;;;;;;4840261;29;20073;-91
2023/07/13 07:49:22;;;;;;;9.32;5.38;;;24.60;73.00;;;;;;4837518;29;20141;-90
2023/07/13 07:51:50;;;;;;;12.90;5.38;;;24.50;73.50;;;;;;4837519;29;20042;-89
2023/07/13 07:54:20;;;;;;;9.65;5.00;;;24.50;73.10;;;;;;4832918;29;20056;-90
2023/07/13 07:57:08;;;;;;;12.93;5.20;;;24.60;72.30;;;;;;4838117;29;20044;-90
2023/07/13 07:59:38;;;;;;;13.93;5.87;;;24.60;71.70;;;;;;4833071;29;20050;-91
2023/07/13 08:02:10;;;;;;;10.18;5.00;;;24.70;71.10;;;;;;4830311;29;20050;-91
2023/07/13 08:04:58;;;;;;;12.65;5.53;;;24.70;71.50;;;;;;4844019;29;20057;-92
2023/07/13 08:07:30;;;;;;;10.85;5.90;;;24.60;71.30;;;;;;4848126;29;20049;-91
2023/07/13 08:09:58;;;;;;;9.63;5.35;;;24.60;71.10;;;;;;4838551;29;20351;-91
2023/07/13 08:12:25;;;;;;;11.73;5.43;;;24.60;70.70;;;;;;4830941;29;20042;-91
2023/07/13 08:14:57;;;;;;;11.90;5.57;;;24.40;71.50;;;;;;4838583;29;20042;-90
2023/07/13 08:17:25;;;;;;;12.15;6.00;;;24.30;71.00;;;;;;4842495;29;20412;-90
2023/07/13 08:19:53;;;;;;;10.77;5.70;;;24.30;70.90;;;;;;4838481;29;20049;-91
2023/07/13 08:22:20;;;;;;;11.50;5.57;;;24.30;71.40;;;;;;4828468;29;20062;-90
2023/07/13 08:24:54;;;;;;;10.03;5.60;;;24.40;71.50;;;;;;4837783;29;20105;-91
2023/07/13 08:27:26;;;;;;;10.32;5.88;;;24.30;71.30;;;;;;4846571;29;20050;-91
2023/07/13 08:29:53;;;;;;;11.07;5.60;;;24.30;71.60;;;;;;4847264;29;20136;-91
2023/07/13 08:32:24;;;;;;;11.77;5.90;;;24.30;72.50;;;;;;4848152;29;20079;-92
2023/07/13 08:34:51;;;;;;;15.18;6.60;;;24.20;72.70;;;;;;4848725;29;20139;-91
2023/07/13 08:37:19;;;;;;;17.17;7.73;;;24.20;73.60;;;;;;4847590;29;20222;-91
2023/07/13 08:39:47;;;;;;;18.52;7.35;;;24.10;76.20;;;;;;4848482;29;20076;-91
2023/07/13 08:42:31;;;;;;;21.52;9.35;;;23.90;76.90;;;;;;4848295;29;20431;-92
2023/07/13 08:45:11;;;;;;;17.13;8.65;;;23.70;78.10;;;;;;4864256;29;20053;-92
2023/07/13 08:47:43;;;;;;;16.60;8.10;;;23.50;78.90;;;;;;4846651;29;20050;-92
2023/07/13 08:50:19;;;;;;;18.67;9.80;;;23.40;79.50;;;;;;4846309;29;20045;-94
2023/07/13 08:52:48;;;;;;;19.85;9.23;;;23.20;80.00;;;;;;4847147;29;20118;-94
2023/07/13 08:55:21;;;;;;;19.40;9.10;;;23.10;80.00;;;;;;4846264;29;20518;-94
2023/07/13 08:57:56;;;;;;;15.85;9.20;;;23.10;79.60;;;;;;4846489;29;20060;-93
2023/07/13 09:00:32;;;;;;;17.05;9.95;;;23.00;79.90;;;;;;4858652;29;20058;-92
2023/07/13 09:03:00;;;;;;;21.70;11.00;;;22.90;80.40;;;;;;4834976;29;20101;-92
2023/07/13 09:05:38;;;;;;;18.05;9.63;;;22.70;81.10;;;;;;4841568;29;20058;-91
2023/07/13 09:08:29;;;;;;;20.80;10.00;;;22.50;81.50;;;;;;4843964;29;20106;-91
2023/07/13 09:11:15;;;;;;;22.27;15.38;;;22.10;80.60;;;;;;4862216;29;20077;-91
2023/07/13 09:14:05;;;;;;;17.58;9.85;;;21.60;79.90;;;;;;4837775;29;20535;-91
2023/07/13 09:16:34;;;;;;;16.80;10.27;;;21.30;80.10;;;;;;4858412;29;20136;-92
2023/07/13 09:19:07;;;;;;;20.42;12.45;;;20.90;80.40;;;;;;4856909;29;20098;-90
2023/07/13 09:21:40;;;;;;;18.42;12.18;;;20.80;81.70;;;;;;4834929;29;20080;-90
2023/07/13 09:24:49;;;;;;;20.92;13.07;;;20.90;81.50;;;;;;4829033;29;20110;-91
2023/07/13 09:27:24;;;;;;;21.10;13.07;;;20.90;81.80;;;;;;4839875;29;20515;-91
2023/07/13 09:30:04;;;;;;;14.70;8.50;;;21.00;82.10;;;;;;4835861;29;20133;-91
2023/07/13 09:32:33;;;;;;;15.85;8.38;;;20.90;81.60;;;;;;4840963;29;20069;-91
2023/07/13 09:35:08;;;;;;;14.13;7.95;;;20.70;81.50;;;;;;4845153;29;20140;-92
2023/07/13 09:37:37;;;;;;;15.15;9.02;;;20.60;81.90;;;;;;4849352;29;20136;-93
2023/07/13 09:40:09;;;;;;;18.85;10.98;;;20.60;82.70;;;;;;4837209;29;20041;-89
2023/07/13 09:42:38;;;;;;;14.97;9.00;;;20.70;82.80;;;;;;4829630;29;20057;-90
2023/07/13 09:45:09;;;;;;;13.27;8.75;;;20.60;82.70;;;;;;4830868;29;20075;-89
2023/07/13 09:47:40;;;;;;;17.45;9.10;;;20.50;83.10;;;;;;4832236;29;20064;-89
2023/07/13 09:50:14;;;;;;;13.43;10.02;;;20.40;83.00;;;;;;4834084;29;20082;-89
2023/07/13 09:52:47;;;;;;;12.45;8.68;;;20.20;82.10;;;;;;4852897;29;20046;-89
2023/07/13 09:55:30;;;;;;;17.80;10.70;;;20.00;82.60;;;;;;4841962;29;20038;-88
2023/07/13 09:57:58;;;;;;;12.68;9.52;;;19.90;82.80;;;;;;4837211;29;20053;-91
2023/07/13 10:00:28;;;;;;;14.10;9.02;;;20.00;83.30;;;;;;4832782;29;20050;-91
2023/07/13 10:03:06;;;;;;;12.93;9.93;;;20.10;82.80;;;;;;4835332;29;20054;-89
2023/07/13 10:05:41;;;;;;;12.95;9.02;;;20.20;82.10;;;;;;4850487;29;20084;-89
2023/07/13 10:08:24;;;;;;;12.83;9.40;;;20.10;81.30;;;;;;4839523;29;20050;-90
2023/07/13 10:11:02;;;;;;;12.40;9.32;;;20.10;81.70;;;;;;4832750;29;20137;-89
2023/07/13 10:13:37;;;;;;;12.07;8.00;;;20.00;81.50;;;;;;4850204;29;20114;-89
2023/07/13 10:16:07;;;;;;;12.13;7.93;;;20.00;81.00;;;;;;4846236;29;20054;-89
2023/07/13 10:18:45;;;;;;;13.57;8.30;;;19.70;81.80;;;;;;4849943;29;20082;-89
2023/07/13 10:21:22;;;;;;;11.70;8.43;;;19.60;82.20;;;;;;4830775;29;20061;-90
2023/07/13 10:23:58;;;;;;;12.07;7.80;;;19.60;82.50;;;;;;4833285;29;20140;-91
2023/07/13 10:26:32;;;;;;;10.13;6.75;;;19.70;82.40;;;;;;4836115;29;20109;-90
2023/07/13 10:29:04;;;;;;;10.88;7.53;;;19.70;82.00;;;;;;4851641;29;20076;-90
2023/07/13 10:31:31;;;;;;;11.38;8.25;;;19.70;82.00;;;;;;4818059;29;20061;-90
2023/07/13 10:33:59;;;;;;;11.40;8.17;;;19.80;82.30;;;;;;4843101;29;20093;-89
2023/07/13 10:36:46;;;;;;;12.73;8.52;;;19.80;82.10;;;;;;4821752;29;20070;-88
2023/07/13 10:39:20;;;;;;;9.68;6.72;;;20.00;82.20;;;;;;4859985;29;20069;-88
2023/07/13 10:41:55;;;;;;;10.13;6.20;;;20.10;82.00;;;;;;4840789;29;20523;-88
2023/07/13 10:44:31;;;;;;;9.75;6.32;;;20.10;82.10;;;;;;4840389;29;20053;-88
2023/07/13 10:47:11;;;;;;;12.17;6.80;;;20.20;81.70;;;;;;4854514;29;20056;-88
2023/07/13 10:49:40;;;;;;;8.07;4.88;;;20.20;81.40;;;;;;4832187;29;20053;-88
2023/07/13 10:52:42;;;;;;;7.97;4.70;;;20.10;80.10;;;;;;4857860;29;20050;-88
2023/07/13 10:55:54;;;;;;;11.70;5.68;;;20.10;80.20;;;;;;4829827;29;20074;-89
2023/07/13 10:58:27;;;;;;;8.15;5.05;;;20.10;79.80;;;;;;4832845;29;20076;-88
2023/07/13 11:01:06;;;;;;;10.17;5.90;;;20.20;80.00;;;;;;4817368;29;20056;-88
2023/07/13 11:03:37;;;;;;;10.45;4.53;;;20.20;80.40;;;;;;4858630;29;20046;-88
2023/07/13 11:06:09;;;;;;;7.75;4.13;;;20.20;80.70;;;;;;4835245;29;20049;-88
2023/07/13 11:08:47;;;;;;;7.82;4.25;;;20.20;79.50;;;;;;4840834;29;20041;-90
2023/07/13 11:11:29;;;;;;;9.65;4.65;;;20.30;79.80;;;;;;4851746;29;20132;-92
2023/07/13 11:14:02;;;;;;;7.80;4.30;;;20.30;80.20;;;;;;4845643;29;20493;-92
2023/07/13 11:16:45;;;;;;;8.48;4.28;;;20.40;79.60;;;;;;4837206;29;20053;-92
2023/07/13 11:19:15;;;;;;;9.35;4.90;;;20.50;80.10;;;;;;4846865;29;20050;-92
2023/07/13 11:22:03;;;;;;;8.65;4.57;;;20.50;79.80;;;;;;4846985;29;20132;-92
2023/07/13 11:24:53;;;;;;;7.70;4.55;;;20.50;80.30;;;;;;4847016;29;20106;-91
2023/07/13 11:27:40;;;;;;;7.83;4.10;;;20.50;80.40;;;;;;4831585;29;20402;-93
2023/07/13 11:30:28;;;;;;;9.20;4.60;;;20.60;79.90;;;;;;4847173;29;20060;-93
2023/07/13 11:33:19;;;;;;;7.00;3.60;;;20.60;80.10;;;;;;4819804;29;20122;-94
2023/07/13 11:35:53;;;;;;;6.95;4.05;;;20.70;80.10;;;;;;4831970;29;20052;-93
2023/07/13 11:38:23;;;;;;;5.63;2.90;;;20.80;80.50;;;;;;4832135;29;20155;-93
2023/07/13 11:40:54;;;;;;;5.90;2.87;;;20.60;79.80;;;;;;4847669;29;20077;-89
2023/07/13 11:43:23;;;;;;;9.07;3.30;;;20.50;79.90;;;;;;4832412;29;20056;-93
2023/07/13 11:45:51;;;;;;;5.95;3.00;;;20.50;80.30;;;;;;4836798;29;20518;-92
2023/07/13 11:48:23;;;;;;;6.85;3.22;;;20.60;80.00;;;;;;4839920;29;20050;-92
2023/07/13 11:51:00;;;;;;;5.80;2.75;;;20.60;79.70;;;;;;4831465;29;20060;-93
2023/07/13 11:53:32;;;;;;;5.83;2.60;;;20.60;79.00;;;;;;4832002;29;20136;-93
2023/07/13 11:56:00;;;;;;;5.97;2.90;;;20.60;79.20;;;;;;4847878;29;20084;-91
2023/07/13 11:58:29;;;;;;;5.65;2.95;;;20.60;78.80;;;;;;4831878;29;20053;-94
2023/07/13 12:01:04;;;;;;;7.20;3.30;;;20.80;79.50;;;;;;4831612;29;20078;-94
2023/07/13 12:03:34;;;;;;;6.43;3.00;;;20.80;79.80;;;;;;4831511;29;20076;-93
2023/07/13 12:06:20;;;;;;;5.30;2.10;;;20.90;79.50;;;;;;4831681;29;20494;-93
2023/07/13 12:08:50;;;;;;;5.75;2.40;;;21.00;79.10;;;;;;4859811;29;20091;-92
2023/07/13 12:11:18;;;;;;;5.28;2.22;;;21.00;78.00;;;;;;4849485;29;20045;-92
2023/07/13 12:13:47;;;;;;;5.35;2.33;;;21.10;78.40;;;;;;4849360;29;20532;-89
2023/07/13 12:16:22;;;;;;;4.70;2.45;;;21.20;79.10;;;;;;4850519;29;20055;-89
2023/07/13 12:18:51;;;;;;;5.67;2.73;;;21.40;78.10;;;;;;4856586;29;20041;-89
2023/07/13 12:21:21;;;;;;;6.70;3.58;;;21.50;76.50;;;;;;4838805;29;20097;-89
2023/07/13 12:23:49;;;;;;;6.25;3.58;;;21.60;76.30;;;;;;4848258;29;20044;-89
2023/07/13 12:26:19;;;;;;;6.43;3.33;;;21.70;75.80;;;;;;4836577;29;20049;-88
2023/07/13 12:28:54;;;;;;;6.75;3.15;;;21.80;76.60;;;;;;4836722;29;20050;-88
2023/07/13 12:31:36;;;;;;;4.80;2.10;;;21.90;77.60;;;;;;4830663;29;20492;-88
2023/07/13 12:34:13;;;;;;;5.40;1.90;;;22.00;76.30;;;;;;4830180;29;20069;-88
2023/07/13 12:36:48;;;;;;;5.35;2.03;;;21.80;75.20;;;;;;4834674;29;20053;-88
2023/07/13 12:39:28;;;;;;;6.32;2.20;;;21.80;75.20;;;;;;4845657;29;20385;-89
2023/07/13 12:42:23;;;;;;;4.53;1.90;;;21.70;75.30;;;;;;4836871;29;20503;-89
2023/07/13 12:44:58;;;;;;;4.47;1.97;;;21.70;75.50;;;;;;4852510;29;20045;-89
2023/07/13 12:47:25;;;;;;;3.83;1.85;;;21.70;76.70;;;;;;4835154;29;20061;-90
2023/07/13 12:50:01;;;;;;;4.13;1.35;;;21.60;75.80;;;;;;4835586;29;20049;-89
2023/07/13 12:52:34;;;;;;;4.85;1.90;;;21.60;75.90;;;;;;4864659;29;20819;-92
2023/07/13 12:55:15;;;;;;;4.43;1.77;;;21.60;76.70;;;;;;4849551;29;20057;-92
2023/07/13 12:57:49;;;;;;;4.50;1.80;;;21.60;76.00;;;;;;4849324;29;20053;-92
2023/07/13 13:00:28;;;;;;;5.28;2.10;;;21.60;75.00;;;;;;4849339;29;20050;-92